createdAt,value
2022-09-17T00:04:41.494Z,99177.84
2022-09-17T00:09:44.239Z,99186.34
2022-09-17T00:14:49.016Z,99186.53
2022-09-17T00:19:51.590Z,99192.91
2022-09-17T00:24:54.185Z,99202.06
2022-09-17T00:29:58.197Z,99208.16
2022-09-17T00:35:00.919Z,99201.06
2022-09-17T00:40:04.073Z,99203.50
2022-09-17T00:45:10.064Z,99200.06
2022-09-17T00:50:15.531Z,99215.84
2022-09-17T00:55:22.760Z,99210.22
2022-09-17T01:00:27.136Z,99217.47
2022-09-17T01:05:39.383Z,99224.56
2022-09-17T01:10:59.348Z,99215.69
2022-09-17T01:16:08.873Z,99219.53
2022-09-17T01:21:38.939Z,99210.22
2022-09-17T01:27:16.653Z,99214.47
2022-09-17T01:32:25.694Z,99217.91
2022-09-17T01:37:32.073Z,99219.38
2022-09-17T01:42:39.007Z,99211.13
2022-09-17T01:47:46.277Z,99223.81
2022-09-17T01:52:52.374Z,99224.00
2022-09-17T01:57:56.898Z,99219.09
2022-09-17T02:03:03.269Z,99223.16
2022-09-17T02:08:08.194Z,99221.53
2022-09-17T02:13:16.140Z,99220.53
2022-09-17T02:18:25.268Z,99223.16
2022-09-17T02:23:32.989Z,99228.44
2022-09-17T02:28:41.637Z,99233.09
2022-09-17T02:33:49.688Z,99220.53
2022-09-17T02:39:00.626Z,99234.53
2022-09-17T02:44:08.447Z,99245.63
2022-09-17T02:49:32.096Z,99225.09
2022-09-17T02:54:41.159Z,99232.06
2022-09-17T02:59:49.526Z,99218.66
2022-09-17T03:04:55.621Z,99218.72
2022-09-17T03:09:58.492Z,99223.53
2022-09-17T03:15:01.286Z,99229.00
2022-09-17T03:20:06.097Z,99227.47
2022-09-17T03:25:09.798Z,99228.38
2022-09-17T03:30:12.681Z,99228.84
2022-09-17T03:35:17.715Z,99225.19
2022-09-17T03:40:20.813Z,99234.00
2022-09-17T03:45:23.551Z,99239.41
2022-09-17T03:50:27.660Z,99230.59
2022-09-17T03:55:30.254Z,99231.47
2022-09-17T04:00:32.944Z,99221.97
2022-09-17T04:05:36.904Z,99221.59
2022-09-17T04:10:39.587Z,99213.72
2022-09-17T04:15:42.781Z,99212.75
2022-09-17T04:20:46.828Z,99224.34
2022-09-17T04:25:49.390Z,99222.81
2022-09-17T04:30:52.075Z,99228.59
2022-09-17T04:35:55.983Z,99221.59
2022-09-17T04:40:59.083Z,99220.97
2022-09-17T04:46:01.669Z,99224.16
2022-09-17T04:51:06.077Z,99229.88
2022-09-17T04:56:08.630Z,99232.31
2022-09-17T05:01:11.297Z,99244.34
2022-09-17T05:06:15.472Z,99244.53
2022-09-17T05:11:18.050Z,99250.41
2022-09-17T05:16:20.755Z,99245.25
2022-09-17T05:21:25.009Z,99255.41
2022-09-17T05:26:27.643Z,99255.97
2022-09-17T05:31:31.117Z,99256.50
2022-09-17T05:36:35.215Z,99270.38
2022-09-17T05:41:37.784Z,99272.56
2022-09-17T05:46:40.525Z,99284.63
2022-09-17T05:51:44.518Z,99279.31
2022-09-17T05:56:47.103Z,99294.00
2022-09-17T06:01:50.854Z,99291.09
2022-09-17T06:06:54.849Z,99293.03
2022-09-17T06:11:57.472Z,99291.69
2022-09-17T06:17:00.316Z,99301.19
2022-09-17T06:22:05.800Z,99296.84
2022-09-17T06:27:08.477Z,99300.31
2022-09-17T06:32:13.019Z,99300.28
2022-09-17T06:37:17.492Z,99311.91
2022-09-17T06:42:20.092Z,99310.44
2022-09-17T06:47:25.319Z,99315.06
2022-09-17T06:52:29.308Z,99315.97
2022-09-17T06:57:31.965Z,99310.50
2022-09-17T07:02:34.861Z,99314.91
2022-09-17T07:07:40.357Z,99311.72
2022-09-17T07:12:47.846Z,99323.78
2022-09-17T07:17:52.915Z,99309.53
2022-09-17T07:22:59.855Z,99324.72
2022-09-17T07:28:03.931Z,99301.53
2022-09-17T07:33:06.526Z,99295.00
2022-09-17T07:38:10.435Z,99310.88
2022-09-17T07:43:13.016Z,99307.41
2022-09-17T07:48:15.616Z,99319.00
2022-09-17T07:53:19.908Z,99327.09
2022-09-17T07:58:22.783Z,99327.00
2022-09-17T08:03:25.401Z,99320.59
2022-09-17T08:08:29.316Z,99327.00
2022-09-17T08:13:32.187Z,99332.44
2022-09-17T08:18:35.639Z,99341.94
2022-09-17T08:23:41.223Z,99347.34
2022-09-17T08:28:47.751Z,99353.50
2022-09-17T08:33:50.522Z,99353.59
2022-09-17T08:38:55.592Z,99356.53
2022-09-17T08:44:07.618Z,99365.16
2022-09-17T08:49:15.722Z,99368.94
2022-09-17T08:54:24.324Z,99387.81
2022-09-17T08:59:30.975Z,99392.94
2022-09-17T09:04:59.585Z,99394.03
2022-09-17T09:10:13.860Z,99402.03
2022-09-17T09:15:30.317Z,99408.56
2022-09-17T09:20:41.380Z,99408.41
2022-09-17T09:25:53.656Z,99417.88
2022-09-17T09:31:01.621Z,99411.81
2022-09-17T09:36:07.514Z,99416.66
2022-09-17T09:41:14.371Z,99419.91
2022-09-17T09:46:32.648Z,99422.69
2022-09-17T09:51:42.069Z,99416.41
2022-09-17T09:56:57.427Z,99408.13
2022-09-17T10:02:00.415Z,99409.66
2022-09-17T10:07:05.709Z,99423.94
2022-09-17T10:12:18.591Z,99432.31
2022-09-17T10:17:23.492Z,99423.56
2022-09-17T10:22:28.535Z,99415.19
2022-09-17T10:27:32.768Z,99404.72
2022-09-17T10:32:35.401Z,99398.91
2022-09-17T10:37:44.389Z,99406.97
2022-09-17T10:42:49.112Z,99403.47
2022-09-17T10:47:52.369Z,99395.81
2022-09-17T10:52:56.640Z,99395.81
2022-09-17T10:58:10.347Z,99391.88
2022-09-17T11:04:00.604Z,99396.53
2022-09-17T11:09:11.704Z,99395.22
2022-09-17T11:14:26.834Z,99379.88
2022-09-17T11:19:38.518Z,99377.41
2022-09-17T11:25:02.598Z,99374.13
2022-09-17T11:30:11.703Z,99366.34
2022-09-17T11:35:17.947Z,99364.63
2022-09-17T11:40:23.886Z,99395.44
2022-09-17T11:45:30.328Z,99408.50
2022-09-17T11:50:37.553Z,99429.81
2022-09-17T11:56:16.867Z,99393.66
2022-09-17T12:01:27.196Z,99386.44
2022-09-17T12:06:37.231Z,99375.72
2022-09-17T12:11:42.729Z,99364.59
2022-09-17T12:16:49.578Z,99363.31
2022-09-17T12:21:55.613Z,99359.97
2022-09-17T12:27:07.445Z,99366.88
2022-09-17T12:32:26.234Z,99351.75
2022-09-17T12:37:34.583Z,99362.19
2022-09-17T12:42:50.316Z,99334.00
2022-09-17T12:48:18.507Z,99330.03
2022-09-17T12:53:25.025Z,99331.13
2022-09-17T12:58:39.915Z,99329.97
2022-09-17T13:03:48.196Z,99326.84
2022-09-17T13:09:05.142Z,99304.91
2022-09-17T13:14:14.616Z,99315.38
2022-09-17T13:19:29.781Z,99304.38
2022-09-17T13:24:33.150Z,99306.13
2022-09-17T13:30:01.555Z,99317.91
2022-09-17T13:35:49.008Z,99309.50
2022-09-17T13:40:51.737Z,99314.13
2022-09-17T13:46:11.293Z,99322.72
2022-09-17T13:51:44.819Z,99305.63
2022-09-17T13:56:50.712Z,99307.81
2022-09-17T14:02:05.162Z,99316.00
2022-09-17T14:07:33.408Z,99305.59
2022-09-17T14:12:53.406Z,99302.81
2022-09-17T14:17:56.219Z,99297.78
2022-09-17T14:23:01.958Z,99303.09
2022-09-17T14:28:09.742Z,99297.28
2022-09-17T14:33:17.431Z,99280.50
2022-09-17T14:38:24.754Z,99285.06
2022-09-17T14:43:34.878Z,99283.81
2022-09-17T14:48:37.893Z,99292.78
2022-09-17T14:53:41.820Z,99273.59
2022-09-17T14:58:47.570Z,99267.19
2022-09-17T15:03:50.266Z,99272.41
2022-09-17T15:08:58.530Z,99287.28
2022-09-17T15:14:04.261Z,99281.56
2022-09-17T15:19:07.056Z,99284.84
2022-09-17T15:24:16.823Z,99282.66
2022-09-17T15:29:22.770Z,99287.66
2022-09-17T15:34:25.377Z,99279.41
2022-09-17T15:39:38.125Z,99292.22
2022-09-17T15:44:40.943Z,99304.25
2022-09-17T15:49:43.779Z,99295.72
2022-09-17T15:54:47.721Z,99287.16
2022-09-17T15:59:50.611Z,99302.91
2022-09-17T16:05:32.485Z,99300.69
2022-09-17T16:10:36.635Z,99305.75
2022-09-17T16:15:40.546Z,99309.31
2022-09-17T16:20:43.493Z,99323.13
2022-09-17T16:25:47.453Z,99315.44
2022-09-17T16:30:50.502Z,99308.75
2022-09-17T16:35:53.090Z,99305.09
2022-09-17T16:40:57.042Z,99330.03
2022-09-17T16:46:00.582Z,99325.44
2022-09-17T16:51:07.931Z,99340.44
2022-09-17T16:56:13.708Z,99345.53
2022-09-17T17:01:17.231Z,99350.50
2022-09-17T17:06:21.015Z,99346.53
2022-09-17T17:11:25.111Z,99339.81
2022-09-17T17:16:27.771Z,99362.47
2022-09-17T17:21:30.465Z,99342.44
2022-09-17T17:26:34.494Z,99344.88
2022-09-17T17:31:37.720Z,99345.38
2022-09-17T17:36:40.410Z,99340.00
2022-09-17T17:41:46.481Z,99349.47
2022-09-17T17:46:52.408Z,99346.78
2022-09-17T17:51:55.068Z,99349.13
2022-09-17T17:56:59.002Z,99356.91
2022-09-17T18:02:01.883Z,99357.28
2022-09-17T18:07:04.711Z,99364.72
2022-09-17T18:12:09.142Z,99370.00
2022-09-17T18:17:11.752Z,99379.91
2022-09-17T18:22:14.367Z,99370.44
2022-09-17T18:27:18.466Z,99386.00
2022-09-17T18:32:21.077Z,99378.34
2022-09-17T18:37:23.845Z,99377.34
2022-09-17T18:42:27.810Z,99376.19
2022-09-17T18:47:30.688Z,99370.84
2022-09-17T18:52:33.295Z,99375.81
2022-09-17T18:57:37.256Z,99390.22
2022-09-17T19:02:40.260Z,99406.34
2022-09-17T19:07:45.761Z,99425.09
2022-09-17T19:12:50.051Z,99389.97
2022-09-17T19:17:54.228Z,99375.59
2022-09-17T19:22:56.949Z,99381.38
2022-09-17T19:28:00.946Z,99387.53
2022-09-17T19:33:04.696Z,99383.22
2022-09-17T19:38:12.565Z,99378.03
2022-09-17T19:43:17.210Z,99377.22
2022-09-17T19:48:23.261Z,99365.38
2022-09-17T19:53:27.961Z,99366.13
2022-09-17T19:58:31.933Z,99377.28
2022-09-17T20:03:34.636Z,99381.69
2022-09-17T20:08:42.512Z,99388.94
2022-09-17T20:13:47.625Z,99393.75
2022-09-17T20:18:51.280Z,99371.19
2022-09-17T20:23:54.189Z,99381.84
2022-09-17T20:28:58.238Z,99376.09
2022-09-17T20:34:02.616Z,99374.94
2022-09-17T20:39:12.303Z,99384.63
2022-09-17T20:44:18.902Z,99376.75
2022-09-17T20:49:21.664Z,99389.09
2022-09-17T20:54:24.264Z,99379.44
2022-09-17T20:59:43.272Z,99391.69
2022-09-17T21:04:45.880Z,99391.56
2022-09-17T21:09:48.775Z,99377.59
2022-09-17T21:14:52.754Z,99381.50
2022-09-17T21:19:55.444Z,99377.09
2022-09-17T21:24:59.380Z,99370.50
2022-09-17T21:30:05.056Z,99374.94
2022-09-17T21:35:08.190Z,99368.34
2022-09-17T21:40:11.710Z,99368.53
2022-09-17T21:45:15.924Z,99365.28
2022-09-17T21:50:18.610Z,99366.59
2022-09-17T21:55:21.187Z,99367.53
2022-09-17T22:00:25.527Z,99376.09
2022-09-17T22:05:29.675Z,99363.69
2022-09-17T22:10:32.421Z,99360.28
2022-09-17T22:15:36.462Z,99376.69
2022-09-17T22:20:39.215Z,99351.75
2022-09-17T22:25:41.828Z,99359.47
2022-09-17T22:30:45.957Z,99342.72
2022-09-17T22:35:48.674Z,99337.47
2022-09-17T22:40:51.343Z,99345.19
2022-09-17T22:45:55.269Z,99346.31
2022-09-17T22:50:57.924Z,99345.66
2022-09-17T22:56:01.066Z,99357.31
2022-09-17T23:01:07.524Z,99358.78
2022-09-17T23:06:12.322Z,99356.19
2022-09-17T23:11:18.625Z,99367.31
2022-09-17T23:16:22.638Z,99362.06
2022-09-17T23:21:25.364Z,99361.06
2022-09-17T23:26:29.522Z,99360.78
2022-09-17T23:31:35.021Z,99350.97
2022-09-17T23:36:39.791Z,99362.06
2022-09-17T23:41:45.332Z,99371.03
2022-09-17T23:46:49.435Z,99378.53
2022-09-17T23:51:52.224Z,99379.00
2022-09-17T23:56:54.994Z,99380.81
